sensor_id;sensor_type;location;lat;lon;timestamp;pressure;altitude;pressure_sealevel;temperature;humidity
70229;BME280;57617;51.988;5.854;2023-03-07T00:00:55;99346.50;;;7.86;70.23
70229;BME280;57617;51.988;5.854;2023-03-07T00:03:20;99346.50;;;7.86;70.74
70229;BME280;57617;51.988;5.854;2023-03-07T00:05:46;99351.34;;;7.89;71.37
70229;BME280;57617;51.988;5.854;2023-03-07T00:08:11;99341.59;;;7.83;71.13
70229;BME280;57617;51.988;5.854;2023-03-07T00:10:37;99346.78;;;7.90;71.37
70229;BME280;57617;51.988;5.854;2023-03-07T00:13:02;99344.06;;;7.90;71.41
70229;BME280;57617;51.988;5.854;2023-03-07T00:15:28;99343.25;;;7.89;72.22
70229;BME280;57617;51.988;5.854;2023-03-07T00:17:54;99342.13;;;7.85;70.97
70229;BME280;57617;51.988;5.854;2023-03-07T00:20:20;99342.72;;;7.87;71.23
70229;BME280;57617;51.988;5.854;2023-03-07T00:22:45;99347.28;;;7.87;71.35
70229;BME280;57617;51.988;5.854;2023-03-07T00:25:11;99349.19;;;7.86;71.08
70229;BME280;57617;51.988;5.854;2023-03-07T00:27:37;99336.44;;;7.82;71.20
70229;BME280;57617;51.988;5.854;2023-03-07T00:30:04;99350.81;;;7.87;70.61
70229;BME280;57617;51.988;5.854;2023-03-07T00:32:30;99355.66;;;7.85;71.08
70229;BME280;57617;51.988;5.854;2023-03-07T00:34:57;99354.06;;;7.89;70.93
70229;BME280;57617;51.988;5.854;2023-03-07T00:37:22;99359.47;;;7.89;70.74
70229;BME280;57617;51.988;5.854;2023-03-07T00:39:48;99350.81;;;7.87;71.35
70229;BME280;57617;51.988;5.854;2023-03-07T00:42:13;99351.09;;;7.91;71.23
70229;BME280;57617;51.988;5.854;2023-03-07T00:44:39;99344.88;;;7.90;71.33
70229;BME280;57617;51.988;5.854;2023-03-07T00:47:04;99346.56;;;7.96;71.40
70229;BME280;57617;51.988;5.854;2023-03-07T00:49:29;99347.63;;;7.95;71.29
70229;BME280;57617;51.988;5.854;2023-03-07T00:51:55;99354.94;;;7.95;71.15
70229;BME280;57617;51.988;5.854;2023-03-07T00:54:20;99341.66;;;7.93;70.77
70229;BME280;57617;51.988;5.854;2023-03-07T00:56:45;99346.56;;;7.96;70.93
70229;BME280;57617;51.988;5.854;2023-03-07T00:59:11;99334.94;;;7.96;70.93
70229;BME280;57617;51.988;5.854;2023-03-07T01:01:36;99337.38;;;7.97;71.43
70229;BME280;57617;51.988;5.854;2023-03-07T01:04:02;99339.81;;;7.99;70.88
70229;BME280;57617;51.988;5.854;2023-03-07T01:06:29;99323.28;;;7.95;71.07
70229;BME280;57617;51.988;5.854;2023-03-07T01:09:00;99331.44;;;8.00;71.38
70229;BME280;57617;51.988;5.854;2023-03-07T01:11:26;99324.97;;;8.01;71.23
70229;BME280;57617;51.988;5.854;2023-03-07T01:13:56;99322.78;;;7.98;71.11
70229;BME280;57617;51.988;5.854;2023-03-07T01:16:24;99312.78;;;7.99;71.35
70229;BME280;57617;51.988;5.854;2023-03-07T01:18:52;99314.16;;;8.01;71.72
70229;BME280;57617;51.988;5.854;2023-03-07T01:21:20;99317.94;;;8.05;71.33
70229;BME280;57617;51.988;5.854;2023-03-07T01:23:46;99310.41;;;8.07;71.09
70229;BME280;57617;51.988;5.854;2023-03-07T01:26:14;99309.56;;;8.07;70.84
70229;BME280;57617;51.988;5.854;2023-03-07T01:28:40;99305.00;;;8.07;71.25
70229;BME280;57617;51.988;5.854;2023-03-07T01:31:05;99312.28;;;8.07;71.51
70229;BME280;57617;51.988;5.854;2023-03-07T01:33:31;99297.97;;;8.06;71.46
70229;BME280;57617;51.988;5.854;2023-03-07T01:35:56;99298.75;;;8.07;71.03
70229;BME280;57617;51.988;5.854;2023-03-07T01:38:22;99300.13;;;8.09;71.29
70229;BME280;57617;51.988;5.854;2023-03-07T01:40:47;99289.03;;;8.06;71.19
70229;BME280;57617;51.988;5.854;2023-03-07T01:43:26;99296.88;;;8.07;71.69
70229;BME280;57617;51.988;5.854;2023-03-07T01:48:20;99289.31;;;8.09;71.46
70229;BME280;57617;51.988;5.854;2023-03-07T01:50:45;99291.22;;;8.14;71.89
70229;BME280;57617;51.988;5.854;2023-03-07T01:53:11;99289.09;;;8.16;71.38
70229;BME280;57617;51.988;5.854;2023-03-07T01:55:37;99256.78;;;7.94;71.29
70229;BME280;57617;51.988;5.854;2023-03-07T01:58:05;99282.31;;;8.13;71.19
70229;BME280;57617;51.988;5.854;2023-03-07T02:00:33;99279.31;;;8.10;70.40
70229;BME280;57617;51.988;5.854;2023-03-07T02:05:39;99280.13;;;8.10;71.15
70229;BME280;57617;51.988;5.854;2023-03-07T02:08:07;99263.34;;;8.03;71.24
70229;BME280;57617;51.988;5.854;2023-03-07T02:10:35;99273.09;;;8.09;71.43
70229;BME280;57617;51.988;5.854;2023-03-07T02:13:01;99267.16;;;8.07;71.56
70229;BME280;57617;51.988;5.854;2023-03-07T02:15:26;99267.41;;;8.06;71.63
70229;BME280;57617;51.988;5.854;2023-03-07T02:17:52;99262.78;;;8.01;71.64
70229;BME280;57617;51.988;5.854;2023-03-07T02:20:53;99264.94;;;7.99;72.19
70229;BME280;57617;51.988;5.854;2023-03-07T02:23:26;99251.38;;;7.94;71.57
70229;BME280;57617;51.988;5.854;2023-03-07T02:26:11;99239.34;;;7.75;72.40
70229;BME280;57617;51.988;5.854;2023-03-07T02:28:37;99264.94;;;7.99;72.29
70229;BME280;57617;51.988;5.854;2023-03-07T02:31:06;99270.34;;;8.04;71.36
70229;BME280;57617;51.988;5.854;2023-03-07T02:33:32;99272.25;;;7.99;72.39
70229;BME280;57617;51.988;5.854;2023-03-07T02:36:02;99251.88;;;7.86;71.93
70229;BME280;57617;51.988;5.854;2023-03-07T02:38:31;99266.56;;;8.05;71.88
70229;BME280;57617;51.988;5.854;2023-03-07T02:41:00;99254.97;;;8.05;71.83
70229;BME280;57617;51.988;5.854;2023-03-07T02:43:25;99263.63;;;8.12;70.96
70229;BME280;57617;51.988;5.854;2023-03-07T02:45:51;99258.50;;;8.10;70.96
70229;BME280;57617;51.988;5.854;2023-03-07T02:48:16;99255.47;;;8.02;71.41
70229;BME280;57617;51.988;5.854;2023-03-07T02:50:41;99271.44;;;8.03;71.33
70229;BME280;57617;51.988;5.854;2023-03-07T02:53:07;99259.53;;;8.04;71.74
70229;BME280;57617;51.988;5.854;2023-03-07T02:55:32;99254.41;;;8.03;71.46
70229;BME280;57617;51.988;5.854;2023-03-07T02:57:58;99253.03;;;8.00;70.67
70229;BME280;57617;51.988;5.854;2023-03-07T03:00:23;99250.63;;;8.04;71.77
70229;BME280;57617;51.988;5.854;2023-03-07T03:02:48;99253.06;;;8.05;71.13
70229;BME280;57617;51.988;5.854;2023-03-07T03:05:14;99250.63;;;8.04;71.17
70229;BME280;57617;51.988;5.854;2023-03-07T03:07:39;99249.31;;;8.06;71.69
70229;BME280;57617;51.988;5.854;2023-03-07T03:10:05;99243.03;;;8.01;70.85
70229;BME280;57617;51.988;5.854;2023-03-07T03:12:30;99257.91;;;8.03;70.25
70229;BME280;57617;51.988;5.854;2023-03-07T03:14:55;99257.38;;;8.01;71.08
70229;BME280;57617;51.988;5.854;2023-03-07T03:17:21;99245.50;;;8.02;71.63
70229;BME280;57617;51.988;5.854;2023-03-07T03:19:46;99252.25;;;8.05;70.95
70229;BME280;57617;51.988;5.854;2023-03-07T03:22:11;99238.16;;;8.03;70.46
70229;BME280;57617;51.988;5.854;2023-03-07T03:24:38;99254.72;;;8.06;70.73
70229;BME280;57617;51.988;5.854;2023-03-07T03:27:04;99237.91;;;8.04;70.92
70229;BME280;57617;51.988;5.854;2023-03-07T03:29:30;99233.59;;;8.03;70.27
70229;BME280;57617;51.988;5.854;2023-03-07T03:31:55;99236.81;;;8.00;69.96
70229;BME280;57617;51.988;5.854;2023-03-07T03:34:20;99245.75;;;8.01;70.67
70229;BME280;57617;51.988;5.854;2023-03-07T03:36:46;99232.22;;;8.01;70.83
70229;BME280;57617;51.988;5.854;2023-03-07T03:39:11;99226.56;;;8.02;70.14
70229;BME280;57617;51.988;5.854;2023-03-07T03:41:38;99221.16;;;8.02;70.39
70229;BME280;57617;51.988;5.854;2023-03-07T03:44:03;99218.72;;;8.01;70.42
70229;BME280;57617;51.988;5.854;2023-03-07T03:46:29;99217.91;;;8.05;70.20
70229;BME280;57617;51.988;5.854;2023-03-07T03:48:54;99209.78;;;8.05;70.54
70229;BME280;57617;51.988;5.854;2023-03-07T03:51:21;99212.25;;;8.07;69.87
70229;BME280;57617;51.988;5.854;2023-03-07T03:53:47;99209.78;;;8.05;70.07
70229;BME280;57617;51.988;5.854;2023-03-07T03:56:17;99214.41;;;8.05;70.80
70229;BME280;57617;51.988;5.854;2023-03-07T03:58:45;99220.06;;;8.03;70.43
70229;BME280;57617;51.988;5.854;2023-03-07T04:01:11;99223.31;;;8.05;70.85
70229;BME280;57617;51.988;5.854;2023-03-07T04:03:41;99226.03;;;8.05;70.52
70229;BME280;57617;51.988;5.854;2023-03-07T04:06:14;99224.41;;;8.04;70.85
70229;BME280;57617;51.988;5.854;2023-03-07T04:08:40;99219.53;;;8.01;70.82
70229;BME280;57617;51.988;5.854;2023-03-07T04:11:05;99220.59;;;8.00;70.62
70229;BME280;57617;51.988;5.854;2023-03-07T04:13:32;99218.72;;;8.01;70.69
70229;BME280;57617;51.988;5.854;2023-03-07T04:15:58;99217.09;;;8.00;71.15
70229;BME280;57617;51.988;5.854;2023-03-07T04:18:23;99210.59;;;8.01;71.07
70229;BME280;57617;51.988;5.854;2023-03-07T04:20:50;99214.13;;;8.01;71.22
70229;BME280;57617;51.988;5.854;2023-03-07T04:23:20;99211.97;;;8.03;70.71
70229;BME280;57617;51.988;5.854;2023-03-07T04:25:47;99210.09;;;8.04;70.50
70229;BME280;57617;51.988;5.854;2023-03-07T04:28:13;99198.97;;;8.05;70.40
70229;BME280;57617;51.988;5.854;2023-03-07T04:30:39;99203.34;;;8.06;69.99
70229;BME280;57617;51.988;5.854;2023-03-07T04:33:04;99189.53;;;8.08;70.44
70229;BME280;57617;51.988;5.854;2023-03-07T04:35:29;99195.19;;;8.01;70.85
70229;BME280;57617;51.988;5.854;2023-03-07T04:37:55;99188.47;;;8.04;70.70
70229;BME280;57617;51.988;5.854;2023-03-07T04:40:20;99186.81;;;8.03;70.73
70229;BME280;57617;51.988;5.854;2023-03-07T04:42:45;99183.56;;;8.01;70.42
70229;BME280;57617;51.988;5.854;2023-03-07T04:45:10;99178.19;;;8.06;70.24
70229;BME280;57617;51.988;5.854;2023-03-07T04:47:36;99183.31;;;8.07;70.88
70229;BME280;57617;51.988;5.854;2023-03-07T04:50:01;99177.09;;;8.07;70.11
70229;BME280;57617;51.988;5.854;2023-03-07T04:52:26;99177.34;;;8.05;70.47
70229;BME280;57617;51.988;5.854;2023-03-07T04:54:51;99171.66;;;8.02;70.51
70229;BME280;57617;51.988;5.854;2023-03-07T04:57:17;99180.88;;;8.06;70.44
70229;BME280;57617;51.988;5.854;2023-03-07T04:59:42;99170.34;;;8.09;70.71
70229;BME280;57617;51.988;5.854;2023-03-07T05:02:11;99167.09;;;8.07;70.56
70229;BME280;57617;51.988;5.854;2023-03-07T05:04:36;99174.66;;;8.05;70.86
70229;BME280;57617;51.988;5.854;2023-03-07T05:07:02;99162.47;;;8.03;70.78
70229;BME280;57617;51.988;5.854;2023-03-07T05:09:28;99171.94;;;8.05;70.66
70229;BME280;57617;51.988;5.854;2023-03-07T05:11:54;99162.75;;;8.01;70.45
70229;BME280;57617;51.988;5.854;2023-03-07T05:14:19;99167.09;;;8.02;70.48
70229;BME280;57617;51.988;5.854;2023-03-07T05:16:45;99151.34;;;7.94;70.64
70229;BME280;57617;51.988;5.854;2023-03-07T05:19:10;99158.38;;;7.95;70.10
70229;BME280;57617;51.988;5.854;2023-03-07T05:21:37;99162.19;;;7.99;70.21
70229;BME280;57617;51.988;5.854;2023-03-07T05:24:05;99159.50;;;8.04;70.59
70229;BME280;57617;51.988;5.854;2023-03-07T05:26:30;99157.88;;;8.03;70.36
70229;BME280;57617;51.988;5.854;2023-03-07T05:28:55;99157.34;;;8.01;70.07
70229;BME280;57617;51.988;5.854;2023-03-07T05:31:21;99159.75;;;7.98;69.51
70229;BME280;57617;51.988;5.854;2023-03-07T05:33:46;99156.50;;;7.96;70.05
70229;BME280;57617;51.988;5.854;2023-03-07T05:36:11;99150.56;;;7.94;71.03
70229;BME280;57617;51.988;5.854;2023-03-07T05:38:36;99144.88;;;7.95;70.17
70229;BME280;57617;51.988;5.854;2023-03-07T05:41:02;99155.66;;;7.90;70.22
70229;BME280;57617;51.988;5.854;2023-03-07T05:43:27;99152.69;;;7.87;70.02
70229;BME280;57617;51.988;5.854;2023-03-07T05:45:52;99154.25;;;7.78;70.56
70229;BME280;57617;51.988;5.854;2023-03-07T05:48:18;99158.84;;;7.72;70.32
70229;BME280;57617;51.988;5.854;2023-03-07T05:50:43;99164.22;;;7.67;70.00
70229;BME280;57617;51.988;5.854;2023-03-07T05:53:08;99155.03;;;7.68;70.74
70229;BME280;57617;51.988;5.854;2023-03-07T05:55:34;99161.50;;;7.67;70.35
70229;BME280;57617;51.988;5.854;2023-03-07T05:57:59;99160.44;;;7.68;70.19
70229;BME280;57617;51.988;5.854;2023-03-07T06:00:25;99171.50;;;7.72;69.74
70229;BME280;57617;51.988;5.854;2023-03-07T06:02:50;99176.38;;;7.70;70.12
70229;BME280;57617;51.988;5.854;2023-03-07T06:05:15;99171.78;;;7.70;70.56
70229;BME280;57617;51.988;5.854;2023-03-07T06:07:41;99169.63;;;7.72;70.53
70229;BME280;57617;51.988;5.854;2023-03-07T06:10:07;99173.13;;;7.73;70.11
70229;BME280;57617;51.988;5.854;2023-03-07T06:12:32;99181.53;;;7.71;69.42
70229;BME280;57617;51.988;5.854;2023-03-07T06:14:57;99186.91;;;7.66;69.68
70229;BME280;57617;51.988;5.854;2023-03-07T06:17:23;99188.00;;;7.65;69.69
70229;BME280;57617;51.988;5.854;2023-03-07T06:19:48;99184.19;;;7.66;69.40
70229;BME280;57617;51.988;5.854;2023-03-07T06:22:13;99183.59;;;7.59;70.30
70229;BME280;57617;51.988;5.854;2023-03-07T06:24:38;99188.16;;;7.49;70.13
70229;BME280;57617;51.988;5.854;2023-03-07T06:27:04;99179.41;;;7.37;69.77
70229;BME280;57617;51.988;5.854;2023-03-07T06:29:29;99190.44;;;7.30;69.93
70229;BME280;57617;51.988;5.854;2023-03-07T06:31:54;99186.56;;;7.16;70.25
70229;BME280;57617;51.988;5.854;2023-03-07T06:34:20;99197.81;;;7.08;69.86
70229;BME280;57617;51.988;5.854;2023-03-07T06:36:45;99197.78;;;7.03;69.89
70229;BME280;57617;51.988;5.854;2023-03-07T06:39:12;99202.06;;;6.99;69.26
70229;BME280;57617;51.988;5.854;2023-03-07T06:41:41;99202.03;;;6.94;69.37
70229;BME280;57617;51.988;5.854;2023-03-07T06:44:06;99201.41;;;6.87;69.66
70229;BME280;57617;51.988;5.854;2023-03-07T06:46:32;99207.88;;;6.86;69.95
70229;BME280;57617;51.988;5.854;2023-03-07T06:48:57;99213.78;;;6.83;69.47
70229;BME280;57617;51.988;5.854;2023-03-07T06:51:23;99207.03;;;6.81;70.10
70229;BME280;57617;51.988;5.854;2023-03-07T06:53:48;99207.03;;;6.81;68.86
70229;BME280;57617;51.988;5.854;2023-03-07T06:56:13;99207.84;;;6.81;69.41
70229;BME280;57617;51.988;5.854;2023-03-07T06:58:39;99211.59;;;6.80;69.65
70229;BME280;57617;51.988;5.854;2023-03-07T07:01:04;99205.34;;;6.75;68.96
70229;BME280;57617;51.988;5.854;2023-03-07T07:03:29;99216.91;;;6.70;68.71
70229;BME280;57617;51.988;5.854;2023-03-07T07:05:55;99219.84;;;6.69;69.35
70229;BME280;57617;51.988;5.854;2023-03-07T07:08:20;99226.56;;;6.66;69.46
70229;BME280;57617;51.988;5.854;2023-03-07T07:10:45;99232.97;;;6.60;68.62
70229;BME280;57617;51.988;5.854;2023-03-07T07:13:10;99236.44;;;6.56;69.32
70229;BME280;57617;51.988;5.854;2023-03-07T07:15:36;99234.00;;;6.54;69.13
70229;BME280;57617;51.988;5.854;2023-03-07T07:18:02;99235.81;;;6.49;68.39
70229;BME280;57617;51.988;5.854;2023-03-07T07:20:27;99233.31;;;6.42;68.96
70229;BME280;57617;51.988;5.854;2023-03-07T07:22:52;99230.31;;;6.39;69.95
70229;BME280;57617;51.988;5.854;2023-03-07T07:25:18;99223.53;;;6.36;68.80
70229;BME280;57617;51.988;5.854;2023-03-07T07:27:43;99225.94;;;6.33;68.65
70229;BME280;57617;51.988;5.854;2023-03-07T07:30:09;99219.75;;;6.32;69.30
70229;BME280;57617;51.988;5.854;2023-03-07T07:32:34;99221.84;;;6.30;69.23
70229;BME280;57617;51.988;5.854;2023-03-07T07:35:00;99216.97;;;6.27;68.97
70229;BME280;57617;51.988;5.854;2023-03-07T07:37:25;99232.28;;;6.22;69.27
70229;BME280;57617;51.988;5.854;2023-03-07T07:39:50;99223.34;;;6.21;69.14
70229;BME280;57617;51.988;5.854;2023-03-07T07:42:16;99218.78;;;6.22;68.95
70229;BME280;57617;51.988;5.854;2023-03-07T07:44:41;99225.81;;;6.23;69.82
70229;BME280;57617;51.988;5.854;2023-03-07T07:47:07;99226.63;;;6.23;69.11
70229;BME280;57617;51.988;5.854;2023-03-07T07:49:32;99217.16;;;6.21;69.12
70229;BME280;57617;51.988;5.854;2023-03-07T07:51:58;99228.56;;;6.28;69.19
70229;BME280;57617;51.988;5.854;2023-03-07T07:54:23;99224.50;;;6.25;68.97
70229;BME280;57617;51.988;5.854;2023-03-07T07:56:48;99223.69;;;6.25;69.17
70229;BME280;57617;51.988;5.854;2023-03-07T07:59:14;99231.84;;;6.30;69.61
70229;BME280;57617;51.988;5.854;2023-03-07T08:01:39;99224.53;;;6.30;69.70
70229;BME280;57617;51.988;5.854;2023-03-07T08:04:04;99231.56;;;6.31;69.60
70229;BME280;57617;51.988;5.854;2023-03-07T08:06:30;99237.47;;;6.28;69.59
70229;BME280;57617;51.988;5.854;2023-03-07T08:08:55;99244.63;;;6.39;69.79
70229;BME280;57617;51.988;5.854;2023-03-07T08:11:22;99251.69;;;6.45;68.64
70229;BME280;57617;51.988;5.854;2023-03-07T08:13:48;99253.84;;;6.43;69.77
70229;BME280;57617;51.988;5.854;2023-03-07T08:16:16;99257.09;;;6.45;69.40
70229;BME280;57617;51.988;5.854;2023-03-07T08:18:47;99252.19;;;6.42;69.01
70229;BME280;57617;51.988;5.854;2023-03-07T08:21:13;99254.88;;;6.42;69.55
70229;BME280;57617;51.988;5.854;2023-03-07T08:23:38;99256.78;;;6.42;69.04
70229;BME280;57617;51.988;5.854;2023-03-07T08:26:05;99254.63;;;6.44;69.23
70229;BME280;57617;51.988;5.854;2023-03-07T08:28:31;99253.06;;;6.48;69.44
70229;BME280;57617;51.988;5.854;2023-03-07T08:30:57;99259.34;;;6.53;69.07
70229;BME280;57617;51.988;5.854;2023-03-07T08:33:22;99221.38;;;6.33;68.61
70229;BME280;57617;51.988;5.854;2023-03-07T08:35:47;99253.72;;;6.60;68.29
70229;BME280;57617;51.988;5.854;2023-03-07T08:38:13;99259.97;;;6.60;68.92
70229;BME280;57617;51.988;5.854;2023-03-07T08:40:38;99262.34;;;6.57;69.29
70229;BME280;57617;51.988;5.854;2023-03-07T08:43:03;99261.28;;;6.58;68.74
70229;BME280;57617;51.988;5.854;2023-03-07T08:45:29;99253.94;;;6.53;69.35
70229;BME280;57617;51.988;5.854;2023-03-07T08:47:55;99262.41;;;6.62;68.78
70229;BME280;57617;51.988;5.854;2023-03-07T08:50:25;99258.56;;;6.58;69.07
70229;BME280;57617;51.988;5.854;2023-03-07T08:52:51;99262.16;;;6.63;69.17
70229;BME280;57617;51.988;5.854;2023-03-07T08:55:16;99264.91;;;6.68;68.63
70229;BME280;57617;51.988;5.854;2023-03-07T08:57:42;99263.59;;;6.71;68.98
70229;BME280;57617;51.988;5.854;2023-03-07T09:00:10;99264.63;;;6.70;68.53
70229;BME280;57617;51.988;5.854;2023-03-07T09:02:36;99264.63;;;6.70;67.99
70229;BME280;57617;51.988;5.854;2023-03-07T09:05:01;99264.91;;;6.68;68.63
70229;BME280;57617;51.988;5.854;2023-03-07T09:07:27;99263.78;;;6.64;68.42
70229;BME280;57617;51.988;5.854;2023-03-07T09:09:52;99259.13;;;6.60;68.43
70229;BME280;57617;51.988;5.854;2023-03-07T09:12:17;99259.91;;;6.55;68.27
70229;BME280;57617;51.988;5.854;2023-03-07T09:14:43;99231.13;;;6.39;68.41
70229;BME280;57617;51.988;5.854;2023-03-07T09:17:08;99259.72;;;6.62;69.28
70229;BME280;57617;51.988;5.854;2023-03-07T09:19:33;99255.38;;;6.61;68.97
70229;BME280;57617;51.988;5.854;2023-03-07T09:21:59;99264.03;;;6.63;68.05
70229;BME280;57617;51.988;5.854;2023-03-07T09:24:24;99263.25;;;6.67;68.49
70229;BME280;57617;51.988;5.854;2023-03-07T09:26:50;99259.00;;;6.71;69.15
70229;BME280;57617;51.988;5.854;2023-03-07T09:29:16;99262.56;;;6.77;69.34
70229;BME280;57617;51.988;5.854;2023-03-07T09:31:42;99267.72;;;6.78;68.83
70229;BME280;57617;51.988;5.854;2023-03-07T09:34:08;99273.63;;;6.75;68.87
70229;BME280;57617;51.988;5.854;2023-03-07T09:36:34;99269.78;;;6.71;68.96
70229;BME280;57617;51.988;5.854;2023-03-07T09:39:00;99266.59;;;6.74;68.82
70229;BME280;57617;51.988;5.854;2023-03-07T09:41:54;99258.50;;;6.74;68.95
70229;BME280;57617;51.988;5.854;2023-03-07T09:44:39;99256.34;;;6.76;69.06
70229;BME280;57617;51.988;5.854;2023-03-07T09:49:54;99249.44;;;6.85;69.42
70229;BME280;57617;51.988;5.854;2023-03-07T09:52:28;99260.28;;;6.90;69.21
70229;BME280;57617;51.988;5.854;2023-03-07T09:55:03;99264.84;;;6.90;69.34
70229;BME280;57617;51.988;5.854;2023-03-07T09:57:32;99263.28;;;6.94;69.44
70229;BME280;57617;51.988;5.854;2023-03-07T10:00:18;99261.13;;;6.96;69.09
70229;BME280;57617;51.988;5.854;2023-03-07T10:05:49;99268.44;;;6.95;68.12
70229;BME280;57617;51.988;5.854;2023-03-07T10:08:17;99266.81;;;6.94;68.66
70229;BME280;57617;51.988;5.854;2023-03-07T10:11:02;99267.34;;;6.96;68.59
70229;BME280;57617;51.988;5.854;2023-03-07T10:19:01;99263.03;;;6.95;68.76
70229;BME280;57617;51.988;5.854;2023-03-07T10:27:14;99266.91;;;7.04;69.13
70229;BME280;57617;51.988;5.854;2023-03-07T10:29:51;99270.66;;;7.03;68.85
70229;BME280;57617;51.988;5.854;2023-03-07T10:35:14;99271.19;;;7.00;69.83
70229;BME280;57617;51.988;5.854;2023-03-07T10:42:53;99276.09;;;7.08;69.80
70229;BME280;57617;51.988;5.854;2023-03-07T10:45:19;99280.44;;;7.09;69.30
70229;BME280;57617;51.988;5.854;2023-03-07T10:47:44;99279.63;;;7.09;68.94
70229;BME280;57617;51.988;5.854;2023-03-07T10:50:45;99272.41;;;7.14;69.96
70229;BME280;57617;51.988;5.854;2023-03-07T10:53:25;99254.59;;;7.18;69.54
70229;BME280;57617;51.988;5.854;2023-03-07T10:55:51;99266.75;;;7.21;69.12
70229;BME280;57617;51.988;5.854;2023-03-07T10:58:22;99268.72;;;7.25;69.75
70229;BME280;57617;51.988;5.854;2023-03-07T11:03:38;99274.97;;;7.31;69.60
70229;BME280;57617;51.988;5.854;2023-03-07T11:08:49;99280.97;;;7.38;68.63
70229;BME280;57617;51.988;5.854;2023-03-07T11:11:23;99275.63;;;7.43;68.69
70229;BME280;57617;51.988;5.854;2023-03-07T11:16:30;99276.94;;;7.40;69.00
70229;BME280;57617;51.988;5.854;2023-03-07T11:18:56;99270.44;;;7.36;69.31
70229;BME280;57617;51.988;5.854;2023-03-07T11:21:33;99273.16;;;7.41;69.15
70229;BME280;57617;51.988;5.854;2023-03-07T11:24:04;99264.00;;;7.42;69.06
70229;BME280;57617;51.988;5.854;2023-03-07T11:26:32;99274.53;;;7.44;68.68
70229;BME280;57617;51.988;5.854;2023-03-07T11:29:13;99276.19;;;7.50;68.68
70229;BME280;57617;51.988;5.854;2023-03-07T11:34:27;99250.44;;;7.37;68.40
70229;BME280;57617;51.988;5.854;2023-03-07T11:37:02;99270.28;;;7.53;68.90
70229;BME280;57617;51.988;5.854;2023-03-07T11:39:39;99283.22;;;7.51;68.83
70229;BME280;57617;51.988;5.854;2023-03-07T11:42:20;99279.41;;;7.47;68.97
70229;BME280;57617;51.988;5.854;2023-03-07T11:44:52;99269.94;;;7.44;68.47
70229;BME280;57617;51.988;5.854;2023-03-07T11:50:23;99274.53;;;7.44;68.71
70229;BME280;57617;51.988;5.854;2023-03-07T11:53:09;99277.25;;;7.44;68.35
70229;BME280;57617;51.988;5.854;2023-03-07T11:55:56;99280.19;;;7.42;68.76
70229;BME280;57617;51.988;5.854;2023-03-07T12:01:32;99272.13;;;7.47;69.41
70229;BME280;57617;51.988;5.854;2023-03-07T12:07:05;99254.34;;;7.51;68.91
70229;BME280;57617;51.988;5.854;2023-03-07T12:12:46;99265.19;;;7.56;69.03
70229;BME280;57617;51.988;5.854;2023-03-07T12:17:52;99271.59;;;7.45;69.10
70229;BME280;57617;51.988;5.854;2023-03-07T12:20:30;99272.06;;;7.37;68.98
70229;BME280;57617;51.988;5.854;2023-03-07T12:23:17;99279.53;;;7.25;68.12
70229;BME280;57617;51.988;5.854;2023-03-07T12:25:48;99293.47;;;7.17;68.97
70229;BME280;57617;51.988;5.854;2023-03-07T12:30:57;99300.81;;;6.95;68.66
70229;BME280;57617;51.988;5.854;2023-03-07T12:38:49;99298.00;;;6.85;68.67
70229;BME280;57617;51.988;5.854;2023-03-07T12:41:23;99296.81;;;6.76;68.15
70229;BME280;57617;51.988;5.854;2023-03-07T12:43:54;99300.00;;;6.68;68.29
70229;BME280;57617;51.988;5.854;2023-03-07T12:46:29;99300.47;;;6.65;68.70
70229;BME280;57617;51.988;5.854;2023-03-07T12:49:01;99307.75;;;6.65;68.60
70229;BME280;57617;51.988;5.854;2023-03-07T12:51:56;99314.38;;;6.57;68.83
70229;BME280;57617;51.988;5.854;2023-03-07T12:54:25;99310.00;;;6.51;68.41
70229;BME280;57617;51.988;5.854;2023-03-07T12:59:20;99296.97;;;6.43;68.60
70229;BME280;57617;51.988;5.854;2023-03-07T13:01:51;99298.53;;;6.39;69.35
70229;BME280;57617;51.988;5.854;2023-03-07T13:04:36;99297.47;;;6.40;69.08
70229;BME280;57617;51.988;5.854;2023-03-07T13:07:11;99309.94;;;6.46;69.86
70229;BME280;57617;51.988;5.854;2023-03-07T13:09:39;99305.63;;;6.45;69.21
70229;BME280;57617;51.988;5.854;2023-03-07T13:14:42;99301.53;;;6.43;69.41
70229;BME280;57617;51.988;5.854;2023-03-07T13:17:12;99294.41;;;6.53;69.20
70229;BME280;57617;51.988;5.854;2023-03-07T13:24:59;99291.44;;;6.76;69.02
70229;BME280;57617;51.988;5.854;2023-03-07T13:27:49;99294.94;;;6.77;69.71
70229;BME280;57617;51.988;5.854;2023-03-07T13:30:18;99296.09;;;6.86;69.06
70229;BME280;57617;51.988;5.854;2023-03-07T13:35:12;99299.78;;;7.01;69.03
70229;BME280;57617;51.988;5.854;2023-03-07T13:40:27;99297.44;;;7.10;68.97
70229;BME280;57617;51.988;5.854;2023-03-07T13:42:53;99293.16;;;7.14;69.38
70229;BME280;57617;51.988;5.854;2023-03-07T13:58:54;99304.03;;;7.19;68.06
70229;BME280;57617;51.988;5.854;2023-03-07T14:01:22;99307.03;;;7.22;68.49
70229;BME280;57617;51.988;5.854;2023-03-07T14:03:55;99304.03;;;7.19;68.34
70229;BME280;57617;51.988;5.854;2023-03-07T14:06:30;99299.13;;;7.16;67.69
70229;BME280;57617;51.988;5.854;2023-03-07T14:08:57;99311.25;;;7.13;67.63
70229;BME280;57617;51.988;5.854;2023-03-07T14:11:35;99309.16;;;7.20;68.62
70229;BME280;57617;51.988;5.854;2023-03-07T14:26:19;99318.50;;;7.08;67.78
70229;BME280;57617;51.988;5.854;2023-03-07T14:28:49;99331.41;;;7.06;67.95
70229;BME280;57617;51.988;5.854;2023-03-07T14:31:26;99325.47;;;7.04;67.95
70229;BME280;57617;51.988;5.854;2023-03-07T14:33:53;99332.44;;;7.00;67.54
70229;BME280;57617;51.988;5.854;2023-03-07T14:36:21;99329.44;;;6.96;66.95
70229;BME280;57617;51.988;5.854;2023-03-07T14:38:48;99335.31;;;6.93;67.93
70229;BME280;57617;51.988;5.854;2023-03-07T14:44:46;99333.69;;;6.92;67.61
70229;BME280;57617;51.988;5.854;2023-03-07T14:47:59;99340.47;;;6.95;67.85
70229;BME280;57617;51.988;5.854;2023-03-07T14:50:28;99341.53;;;6.94;67.13
70229;BME280;57617;51.988;5.854;2023-03-07T14:52:57;99342.31;;;6.89;68.22
70229;BME280;57617;51.988;5.854;2023-03-07T14:55:24;99321.63;;;6.73;68.29
70229;BME280;57617;51.988;5.854;2023-03-07T14:57:53;99345.19;;;6.83;67.74
70229;BME280;57617;51.988;5.854;2023-03-07T15:05:28;99347.78;;;6.94;68.10
70229;BME280;57617;51.988;5.854;2023-03-07T15:07:54;99348.25;;;6.91;68.28